Calumet, Iowa
Current Conditions -  °F | °C
As of 9:35 PM on Saturday 25 Oct 2014 (Local Time) from KCKP Reporting Station
Clear Clear  
Wind Chill: 46°   Ceiling: Unl
Heat Index: 46°   Visibility: 10mi
Dew Point: 39°   Wind: 0mph
Humidity: 78%   Direction: NA
Pressure: 30.08"   Gusts: NA
Location:  42.95°N, 95.55°W
Report Text: KCKP 260235Z AUTO 00000KT 10SM CLR 08/04 A3008 RMK AO2 T00770041
Loading
Personal Weather Stations






























Interactive Weather Map
Tropical Storm Tracking
New forecast layout! Learn more

10-Day Weather Forecast

Advertisements
Track Severe Weather on mobile